createdAt,value
2022-07-27T00:01:16.529Z,16.22
2022-07-27T00:04:19.878Z,16.19
2022-07-27T00:07:23.368Z,16.13
2022-07-27T00:10:27.643Z,16.06
2022-07-27T00:13:30.449Z,16.10
2022-07-27T00:16:33.513Z,16.12
2022-07-27T00:19:36.266Z,15.86
2022-07-27T00:22:38.857Z,16.08
2022-07-27T00:25:42.809Z,16.09
2022-07-27T00:28:45.422Z,16.05
2022-07-27T00:31:48.074Z,16.12
2022-07-27T00:34:50.773Z,16.09
2022-07-27T00:37:53.471Z,16.12
2022-07-27T00:40:57.449Z,16.05
2022-07-27T00:44:01.332Z,16.20
2022-07-27T00:47:04.735Z,16.22
2022-07-27T00:50:08.622Z,16.29
2022-07-27T00:53:11.905Z,16.33
2022-07-27T00:56:17.008Z,16.45
2022-07-27T00:59:21.179Z,16.39
2022-07-27T01:02:23.939Z,16.42
2022-07-27T01:05:36.624Z,16.39
2022-07-27T01:08:42.525Z,16.37
2022-07-27T01:11:47.072Z,16.44
2022-07-27T01:14:51.157Z,16.49
2022-07-27T01:17:53.737Z,16.33
2022-07-27T01:20:56.957Z,16.17
2022-07-27T01:24:01.151Z,15.91
2022-07-27T01:27:05.256Z,16.21
2022-07-27T01:30:26.396Z,16.19
2022-07-27T01:33:29.186Z,16.08
2022-07-27T01:36:32.012Z,16.05
2022-07-27T01:39:35.941Z,16.32
2022-07-27T01:42:38.566Z,15.96
2022-07-27T01:45:41.199Z,16.06
2022-07-27T01:48:44.082Z,16.11
2022-07-27T01:51:46.823Z,15.84
2022-07-27T01:54:50.761Z,16.04
2022-07-27T01:57:53.375Z,16.12
2022-07-27T02:00:56.015Z,16.01
2022-07-27T02:03:58.652Z,15.98
2022-07-27T02:07:01.261Z,16.17
2022-07-27T02:10:05.952Z,16.17
2022-07-27T02:13:22.106Z,15.92
2022-07-27T02:16:25.407Z,15.77
2022-07-27T02:19:29.079Z,15.82
2022-07-27T02:22:31.816Z,15.98
2022-07-27T02:25:36.123Z,15.86
2022-07-27T02:28:39.318Z,16.00
2022-07-27T02:31:41.999Z,16.17
2022-07-27T02:34:45.164Z,16.16
2022-07-27T02:37:48.163Z,15.86
2022-07-27T02:40:52.204Z,15.85
2022-07-27T02:43:54.845Z,15.86
2022-07-27T02:46:57.499Z,15.90
2022-07-27T02:50:00.129Z,15.76
2022-07-27T02:53:02.756Z,15.71
2022-07-27T02:56:07.045Z,15.65
2022-07-27T02:59:09.933Z,15.73
2022-07-27T03:02:12.813Z,15.63
2022-07-27T03:05:15.674Z,15.75
2022-07-27T03:08:18.269Z,15.83
2022-07-27T03:11:22.300Z,15.83
2022-07-27T03:14:25.585Z,15.90
2022-07-27T03:17:28.315Z,15.83
2022-07-27T03:20:30.933Z,15.87
2022-07-27T03:23:33.604Z,15.79
2022-07-27T03:26:37.643Z,15.85
2022-07-27T03:29:40.282Z,15.86
2022-07-27T03:32:42.927Z,15.92
2022-07-27T03:35:45.777Z,16.01
2022-07-27T03:38:48.556Z,15.91
2022-07-27T03:41:52.545Z,16.00
2022-07-27T03:44:55.148Z,15.86
2022-07-27T03:47:57.877Z,15.97
2022-07-27T03:51:00.528Z,16.05
2022-07-27T03:54:03.886Z,16.05
2022-07-27T03:57:07.771Z,15.23
2022-07-27T04:00:12.409Z,15.45
2022-07-27T04:03:15.017Z,15.54
2022-07-27T04:06:17.630Z,15.43
2022-07-27T04:09:21.208Z,15.57
2022-07-27T04:12:25.246Z,15.83
2022-07-27T04:15:28.264Z,15.83
2022-07-27T04:18:30.950Z,15.79
2022-07-27T04:21:34.558Z,15.70
2022-07-27T04:24:37.353Z,15.78
2022-07-27T04:27:41.364Z,15.83
2022-07-27T04:30:44.027Z,15.95
2022-07-27T04:33:46.875Z,15.90
2022-07-27T04:36:50.514Z,15.83
2022-07-27T04:39:57.737Z,15.87
2022-07-27T04:43:03.022Z,15.94
2022-07-27T04:46:08.483Z,15.77
2022-07-27T04:49:14.820Z,15.79
2022-07-27T04:52:17.986Z,15.79
2022-07-27T04:55:21.523Z,15.91
2022-07-27T04:58:25.842Z,15.91
2022-07-27T05:01:34.703Z,15.89
2022-07-27T05:04:37.917Z,15.95
2022-07-27T05:07:40.565Z,16.09
2022-07-27T05:10:43.136Z,15.95
2022-07-27T05:13:47.093Z,15.92
2022-07-27T05:16:50.028Z,16.11
2022-07-27T05:19:52.947Z,16.23
2022-07-27T05:22:55.545Z,16.26
2022-07-27T05:25:58.217Z,16.24
2022-07-27T05:29:02.233Z,16.43
2022-07-27T05:32:05.822Z,16.57
2022-07-27T05:35:09.513Z,16.64
2022-07-27T05:38:12.243Z,16.66
2022-07-27T05:41:14.893Z,16.65
2022-07-27T05:44:18.921Z,16.67
2022-07-27T05:47:21.726Z,16.61
2022-07-27T05:50:24.310Z,16.69
2022-07-27T05:53:27.419Z,16.50
2022-07-27T05:56:30.369Z,16.55
2022-07-27T05:59:36.071Z,16.63
2022-07-27T06:02:38.664Z,16.67
2022-07-27T06:05:41.350Z,16.64
2022-07-27T06:08:43.198Z,16.79
2022-07-27T06:11:45.816Z,16.90
2022-07-27T06:14:51.120Z,16.66
2022-07-27T06:17:54.741Z,16.71
2022-07-27T06:20:57.336Z,16.82
2022-07-27T06:23:59.972Z,17.12
2022-07-27T06:27:02.653Z,17.14
2022-07-27T06:30:07.885Z,17.03
2022-07-27T06:33:10.488Z,17.07
2022-07-27T06:36:13.548Z,17.21
2022-07-27T06:39:16.279Z,17.17
2022-07-27T06:42:18.946Z,17.08
2022-07-27T06:45:22.918Z,16.98
2022-07-27T06:48:26.299Z,16.82
2022-07-27T06:51:28.980Z,17.03
2022-07-27T06:54:32.252Z,17.30
2022-07-27T06:57:34.907Z,17.22
2022-07-27T07:00:38.914Z,17.06
2022-07-27T07:03:41.603Z,17.33
2022-07-27T07:06:44.374Z,17.50
2022-07-27T07:09:47.020Z,17.30
2022-07-27T07:12:49.715Z,17.36
2022-07-27T07:15:53.879Z,17.38
2022-07-27T07:18:56.488Z,17.35
2022-07-27T07:21:59.074Z,17.54
2022-07-27T07:25:03.161Z,17.24
2022-07-27T07:28:06.933Z,17.27
2022-07-27T07:31:11.141Z,17.36
2022-07-27T07:34:13.809Z,17.54
2022-07-27T07:37:16.503Z,17.62
2022-07-27T07:43:43.402Z,17.82
2022-07-27T07:46:47.588Z,18.02
2022-07-27T07:49:50.380Z,18.13
2022-07-27T07:52:54.846Z,18.06
2022-07-27T07:55:58.314Z,18.14
2022-07-27T07:59:04.766Z,18.24
2022-07-27T08:02:08.812Z,18.47
2022-07-27T08:05:12.101Z,18.76
2022-07-27T08:08:14.904Z,18.54
2022-07-27T08:11:17.577Z,18.80
2022-07-27T08:14:20.203Z,18.75
2022-07-27T08:17:24.152Z,19.01
2022-07-27T08:20:28.312Z,19.17
2022-07-27T08:23:31.759Z,18.99
2022-07-27T08:26:34.747Z,19.45
2022-07-27T08:29:37.644Z,19.56
2022-07-27T08:32:50.110Z,19.36
2022-07-27T08:35:52.883Z,19.21
2022-07-27T08:38:55.629Z,19.20
2022-07-27T08:42:04.136Z,19.11
2022-07-27T08:45:09.047Z,18.74
2022-07-27T08:48:15.424Z,18.67
2022-07-27T08:51:18.359Z,18.46
2022-07-27T08:54:21.837Z,18.30
2022-07-27T08:57:24.491Z,18.07
2022-07-27T09:00:27.960Z,17.75
2022-07-27T09:03:32.858Z,17.85
2022-07-27T09:06:43.422Z,18.12
2022-07-27T09:09:48.315Z,18.40
2022-07-27T09:12:51.017Z,18.61
2022-07-27T09:16:16.872Z,19.04
2022-07-27T09:19:19.500Z,19.32
2022-07-27T09:22:39.611Z,19.65
2022-07-27T09:26:02.990Z,19.75
2022-07-27T09:29:07.214Z,19.82
2022-07-27T09:32:15.678Z,19.51
2022-07-27T09:35:22.936Z,19.78
2022-07-27T09:38:26.759Z,20.18
2022-07-27T09:41:41.186Z,20.17
2022-07-27T09:44:46.126Z,20.45
2022-07-27T09:48:07.767Z,20.43
2022-07-27T09:51:57.640Z,20.54
2022-07-27T09:54:44.462Z,20.51
2022-07-27T09:57:54.670Z,20.23
2022-07-27T10:00:58.801Z,20.27
2022-07-27T10:04:04.607Z,20.14
2022-07-27T10:07:13.247Z,20.03
2022-07-27T10:10:17.000Z,20.27
2022-07-27T10:13:19.643Z,20.36
2022-07-27T10:16:24.265Z,20.12
2022-07-27T10:19:32.408Z,20.64
2022-07-27T10:22:53.600Z,20.60
2022-07-27T10:26:20.313Z,20.31
2022-07-27T10:29:24.505Z,20.42
2022-07-27T10:32:31.009Z,20.58
2022-07-27T10:35:35.203Z,20.32
2022-07-27T10:38:48.536Z,20.26
2022-07-27T10:41:51.259Z,20.61
2022-07-27T10:45:02.843Z,20.65
2022-07-27T10:48:05.868Z,21.39
2022-07-27T10:51:09.696Z,21.39
2022-07-27T10:54:23.357Z,21.00
2022-07-27T10:57:27.948Z,20.24
2022-07-27T11:00:59.301Z,20.35
2022-07-27T11:04:10.309Z,20.38
2022-07-27T11:07:26.683Z,20.83
2022-07-27T11:10:43.732Z,21.45
2022-07-27T11:13:47.104Z,20.84
2022-07-27T11:16:55.859Z,20.86
2022-07-27T11:20:00.610Z,20.56
2022-07-27T11:23:50.414Z,20.48
2022-07-27T11:26:45.713Z,20.65
2022-07-27T11:29:48.433Z,21.59
2022-07-27T11:32:51.160Z,22.36
2022-07-27T11:35:55.004Z,22.57
2022-07-27T11:38:57.648Z,21.86
2022-07-27T11:42:08.621Z,21.54
2022-07-27T11:45:13.432Z,20.99
2022-07-27T11:48:18.696Z,20.87
2022-07-27T11:51:21.918Z,20.82
2022-07-27T11:54:28.114Z,21.20
2022-07-27T11:57:34.073Z,22.29
2022-07-27T12:00:44.759Z,23.79
2022-07-27T12:03:47.804Z,22.33
2022-07-27T12:06:59.218Z,21.96
2022-07-27T12:10:06.787Z,21.21
2022-07-27T12:13:19.348Z,21.37
2022-07-27T12:16:22.110Z,21.43
2022-07-27T12:19:25.297Z,21.63
2022-07-27T12:22:34.031Z,21.64
2022-07-27T12:25:39.658Z,21.40
2022-07-27T12:28:43.716Z,21.90
2022-07-27T12:31:50.120Z,22.23
2022-07-27T12:34:52.927Z,21.95
2022-07-27T12:38:00.721Z,21.39
2022-07-27T12:41:03.462Z,21.21
2022-07-27T12:44:09.488Z,21.13
2022-07-27T12:47:30.037Z,21.23
2022-07-27T12:50:33.164Z,21.15
2022-07-27T12:53:37.855Z,21.15
2022-07-27T12:56:40.835Z,21.05
2022-07-27T13:02:55.052Z,21.13
2022-07-27T13:05:57.849Z,21.00
2022-07-27T13:09:00.450Z,21.23
2022-07-27T13:12:03.381Z,20.79
2022-07-27T13:15:07.950Z,20.82
2022-07-27T13:18:11.896Z,20.43
2022-07-27T13:21:14.989Z,20.65
2022-07-27T13:24:17.697Z,20.61
2022-07-27T13:27:21.440Z,20.80
2022-07-27T13:30:24.892Z,20.77
2022-07-27T13:33:29.638Z,20.97
2022-07-27T13:36:32.283Z,20.96
2022-07-27T13:39:34.866Z,21.09
2022-07-27T13:42:37.807Z,21.31
2022-07-27T13:45:42.958Z,21.45
2022-07-27T18:39:23.838Z,17.69
2022-07-27T18:42:36.370Z,18.01
2022-07-27T18:45:39.830Z,17.89
2022-07-27T18:48:44.317Z,17.87
2022-07-27T18:51:46.981Z,17.98
2022-07-27T18:54:50.931Z,18.06
2022-07-27T18:57:55.464Z,18.02
2022-07-27T19:00:58.450Z,17.99
2022-07-27T19:04:01.979Z,17.80
2022-07-27T19:07:06.530Z,17.84
2022-07-27T19:10:11.744Z,17.83
2022-07-27T19:13:14.887Z,17.71
2022-07-27T19:16:17.535Z,17.61
2022-07-27T19:19:23.033Z,17.38
2022-07-27T19:22:27.209Z,17.44
2022-07-27T19:25:31.373Z,17.26
2022-07-27T19:28:34.007Z,17.49
2022-07-27T19:31:37.802Z,17.51
2022-07-27T19:34:40.639Z,17.29
2022-07-27T19:37:43.243Z,17.41
2022-07-27T19:40:47.580Z,17.33
2022-07-27T19:43:50.588Z,17.42
2022-07-27T19:46:53.402Z,17.39
2022-07-27T19:49:55.977Z,17.22
2022-07-27T19:52:58.607Z,16.91
2022-07-27T19:56:02.579Z,17.09
2022-07-27T19:59:05.153Z,16.98
2022-07-27T20:02:07.966Z,16.88
2022-07-27T20:05:11.227Z,16.88
2022-07-27T20:08:14.786Z,16.84
2022-07-27T20:11:18.723Z,16.78
2022-07-27T20:14:21.371Z,16.66
2022-07-27T20:17:23.967Z,16.49
2022-07-27T20:20:26.715Z,16.47
2022-07-27T20:23:29.395Z,16.45
2022-07-27T20:26:33.348Z,16.41
2022-07-27T20:29:35.987Z,16.27
2022-07-27T20:32:38.680Z,16.15
2022-07-27T20:35:41.338Z,16.20
2022-07-27T20:38:43.932Z,16.33
2022-07-27T20:41:47.855Z,16.20
2022-07-27T20:44:50.470Z,16.09
2022-07-27T20:47:53.037Z,16.04
2022-07-27T20:50:55.639Z,16.07
2022-07-27T20:53:58.318Z,15.93
2022-07-27T20:57:02.375Z,15.93
2022-07-27T21:00:06.431Z,15.88
2022-07-27T21:03:09.031Z,15.88
2022-07-27T21:06:11.651Z,15.68
2022-07-27T21:09:15.291Z,15.64
2022-07-27T21:12:19.587Z,15.60
2022-07-27T21:15:22.272Z,15.60
2022-07-27T21:18:36.025Z,15.61
2022-07-27T21:21:38.631Z,15.44
2022-07-27T21:24:41.227Z,15.34
2022-07-27T21:27:47.129Z,15.25
2022-07-27T21:30:50.822Z,15.18
2022-07-27T21:33:53.473Z,15.12
2022-07-27T21:36:56.202Z,15.13
2022-07-27T21:39:58.818Z,15.07
2022-07-27T21:43:02.763Z,15.00
2022-07-27T21:46:05.399Z,14.96
2022-07-27T21:49:08.370Z,14.97
2022-07-27T21:52:11.177Z,14.94
2022-07-27T21:55:13.918Z,14.78
2022-07-27T21:58:26.888Z,14.73
2022-07-27T22:01:29.506Z,14.81
2022-07-27T22:04:32.184Z,14.69
2022-07-27T22:07:34.822Z,14.63
2022-07-27T22:10:37.430Z,14.66
2022-07-27T22:13:41.416Z,14.52
2022-07-27T22:16:44.214Z,14.59
2022-07-27T22:19:46.824Z,14.46
2022-07-27T22:22:50.747Z,14.49
2022-07-27T22:25:53.432Z,14.44
2022-07-27T22:28:57.423Z,14.46
2022-07-27T22:32:00.061Z,14.34
2022-07-27T22:35:02.784Z,14.29
2022-07-27T22:38:05.337Z,14.32
2022-07-27T22:41:08.016Z,14.12
2022-07-27T22:44:12.354Z,14.25
2022-07-27T22:47:15.326Z,14.23
2022-07-27T22:50:20.314Z,14.21
2022-07-27T22:53:22.949Z,14.09
2022-07-27T22:56:25.557Z,13.98
2022-07-27T22:59:29.599Z,14.09
2022-07-27T23:02:32.162Z,14.00
2022-07-27T23:05:34.815Z,13.96
2022-07-27T23:08:37.475Z,14.02
2022-07-27T23:11:40.050Z,13.94
2022-07-27T23:14:43.958Z,13.87
2022-07-27T23:17:51.874Z,13.87
2022-07-27T23:20:54.669Z,13.86
2022-07-27T23:23:57.271Z,13.80
2022-07-27T23:27:01.325Z,13.68
2022-07-27T23:30:05.951Z,13.64
2022-07-27T23:33:08.663Z,13.67
2022-07-27T23:36:11.942Z,13.65
2022-07-27T23:39:14.576Z,13.60
2022-07-27T23:42:17.171Z,13.44
2022-07-27T23:45:21.388Z,13.37
2022-07-27T23:48:24.994Z,13.38
2022-07-27T23:51:29.250Z,13.37
2022-07-27T23:54:32.286Z,13.27
2022-07-27T23:57:34.925Z,13.20
